Time;durP1;ratioP1;P1;durP2;ratioP2;P2;SDS_P1;SDS_P2;PMS_P1;PMS_P2;Temp;Humidity;BMP_temperature;BMP_pressure;BME280_temperature;BME280_humidity;BME280_pressure;Samples;Min_cycle;Max_cycle;Signal;HPM_P1;HPM_P2
2022/02/01 00:00:03;;;;;;;;;;;;;;;22.26;19.19;96940.31;4961027;29;1130;-76
2022/02/01 00:02:39;;;;;;;;;;;;;;;22.03;19.48;96936.88;4962172;29;1032;-76
2022/02/01 00:05:21;;;;;;;;;;;;;;;22.34;19.13;96933.84;4946704;28;918;-76
2022/02/01 00:08:15;;;;;;;;;;;;;;;22.70;18.50;96935.00;4999911;28;1011;-76
2022/02/01 00:14:07;;;;;;;;;;;;;;;21.92;19.50;96930.13;4921111;29;968;-76
2022/02/01 00:33:18;;;;;;;;;;;;;;;22.28;19.15;96946.31;4941984;29;954;-75
2022/02/01 00:35:49;;;;;;;;;;;;;;;22.22;19.27;96943.31;4943351;29;1914;-76
2022/02/01 00:38:23;;;;;;;;;;;;;;;22.77;18.75;96937.50;4925515;29;995;-76
2022/02/01 00:40:54;;;;;;;;;;;;;;;22.92;18.47;96936.84;4923828;29;977;-75
2022/02/01 00:43:20;;;;;;;;;;;;;;;22.40;18.76;96938.88;4918044;28;1098;-76
2022/02/01 00:45:46;;;;;;;;;;;;;;;21.88;19.55;96935.16;4981378;28;977;-76
2022/02/01 00:48:11;;;;;;;;;;;;;;;22.06;19.54;96937.94;4978686;28;1012;-75
2022/02/01 00:50:36;;;;;;;;;;;;;;;23.06;18.34;96936.94;4980714;28;978;-76
2022/02/01 00:53:02;;;;;;;;;;;;;;;22.63;18.38;96941.00;4979381;28;963;-76
2022/02/01 00:55:27;;;;;;;;;;;;;;;22.38;19.08;96932.88;4980177;28;1887;-76
2022/02/01 00:57:53;;;;;;;;;;;;;;;22.36;19.07;96933.38;4979771;28;922;-76
2022/02/01 01:00:18;;;;;;;;;;;;;;;22.86;18.25;96933.84;4985475;28;1066;-76
2022/02/01 01:02:44;;;;;;;;;;;;;;;22.93;18.34;96929.91;4999480;28;899;-76
2022/02/01 01:05:09;;;;;;;;;;;;;;;22.38;19.01;96935.72;4969222;28;1058;-76
2022/02/01 01:07:34;;;;;;;;;;;;;;;22.20;19.14;96926.00;5019702;28;886;-76
2022/02/01 01:10:02;;;;;;;;;;;;;;;22.39;19.14;96923.16;5018216;28;1170;-75
2022/02/01 01:12:29;;;;;;;;;;;;;;;22.82;18.64;96928.34;4990226;28;957;-76
2022/02/01 01:44:51;;;;;;;;;;;;;;;21.92;19.71;96874.25;4997230;28;1011;-76
2022/02/01 01:55:29;;;;;;;;;;;;;;;20.75;19.53;96670.91;5018613;28;1898;-76
2022/02/01 01:57:54;;;;;;;;;;;;;;;22.57;18.95;96877.72;5018060;28;985;-76
2022/02/01 02:03:08;;;;;;;;;;;;;;;22.51;19.00;96868.28;4977795;28;1039;-76
2022/02/01 02:05:34;;;;;;;;;;;;;;;22.32;18.96;96857.00;4980063;28;1001;-76
2022/02/01 02:07:59;;;;;;;;;;;;;;;22.24;19.18;96861.47;4978798;28;1053;-75
2022/02/01 02:10:30;;;;;;;;;;;;;;;22.73;18.93;96865.19;4979545;28;958;-75
2022/02/01 02:14:16;;;;;;;;;;;;;;;22.93;18.49;96867.50;4979200;28;927;-76
2022/02/01 02:15:55;;;;;;;;;;;;;;;23.02;18.15;96861.78;4989858;28;1981;-75
2022/02/01 02:18:21;;;;;;;;;;;;;;;22.56;18.89;96867.66;4996668;28;1418;-76
2022/02/01 02:20:49;;;;;;;;;;;;;;;22.25;19.05;96871.53;4967802;28;984;-75
2022/02/01 02:23:15;;;;;;;;;;;;;;;21.88;19.59;96867.19;4977910;28;1027;-76
2022/02/01 02:25:40;;;;;;;;;;;;;;;22.62;18.75;96875.00;4983289;28;969;-76
2022/02/01 02:28:08;;;;;;;;;;;;;;;22.95;18.44;96873.47;4981244;28;975;-76
2022/02/01 02:30:33;;;;;;;;;;;;;;;22.44;18.92;96869.44;4983259;28;996;-75
2022/02/01 02:33:04;;;;;;;;;;;;;;;22.17;19.41;96867.44;4981528;28;1123;-76
2022/02/01 02:35:34;;;;;;;;;;;;;;;22.23;19.36;96871.22;4944220;29;1980;-75
2022/02/01 02:38:04;;;;;;;;;;;;;;;22.71;18.61;96871.34;4943102;29;1004;-76
2022/02/01 02:46:02;;;;;;;;;;;;;;;22.06;19.44;96873.59;4964994;28;944;-76
2022/02/01 02:48:27;;;;;;;;;;;;;;;22.26;19.23;96869.47;4961420;28;965;-76
2022/02/01 02:50:53;;;;;;;;;;;;;;;22.72;18.67;96872.91;4964405;28;1118;-76
2022/02/01 02:53:18;;;;;;;;;;;;;;;22.82;18.46;96873.66;4961591;28;937;-75
2022/02/01 02:55:44;;;;;;;;;;;;;;;22.41;18.85;96863.94;4963604;28;1895;-76
2022/02/01 02:58:09;;;;;;;;;;;;;;;22.18;19.33;96869.03;4964120;28;1059;-76
2022/02/01 03:00:35;;;;;;;;;;;;;;;22.31;19.38;96863.94;4982363;28;1015;-76
2022/02/01 03:03:01;;;;;;;;;;;;;;;23.10;18.43;96868.63;4961275;28;1037;-76
2022/02/01 03:05:27;;;;;;;;;;;;;;;22.90;18.58;96877.75;4962415;28;947;-76
2022/02/01 03:07:52;;;;;;;;;;;;;;;22.36;19.28;96880.31;4963331;29;1040;-76
2022/02/01 03:10:18;;;;;;;;;;;;;;;22.07;19.44;96871.53;4962576;29;1238;-76
2022/02/01 03:20:39;;;;;;;;;;;;;;;22.23;19.43;96874.06;5027207;28;1019;-74
2022/02/01 03:23:05;;;;;;;;;;;;;;;22.39;18.87;96877.81;5059834;28;984;-76
2022/02/01 03:25:30;;;;;;;;;;;;;;;22.75;18.61;96871.97;5020412;28;970;-75
2022/02/01 03:27:56;;;;;;;;;;;;;;;22.74;18.80;96878.09;5003767;28;1036;-76
2022/02/01 03:30:22;;;;;;;;;;;;;;;22.35;19.15;96875.91;4987506;28;949;-76
2022/02/01 03:32:48;;;;;;;;;;;;;;;22.10;19.46;96879.91;5021026;28;1031;-76
2022/02/01 03:35:13;;;;;;;;;;;;;;;22.36;19.35;96874.63;5000429;28;1914;-76
2022/02/01 03:37:39;;;;;;;;;;;;;;;22.79;18.72;96871.78;5001791;28;972;-76
2022/02/01 03:40:05;;;;;;;;;;;;;;;22.62;18.64;96872.19;4999873;28;985;-76
2022/02/01 03:42:30;;;;;;;;;;;;;;;22.26;19.18;96887.25;5001586;28;985;-76
2022/02/01 03:44:56;;;;;;;;;;;;;;;22.05;19.61;96872.03;4999794;28;1058;-76
2022/02/01 03:47:21;;;;;;;;;;;;;;;22.27;19.10;96880.31;5002155;28;938;-75
2022/02/01 03:49:47;;;;;;;;;;;;;;;22.65;19.12;96878.16;4999242;28;1098;-76
2022/02/01 03:52:12;;;;;;;;;;;;;;;22.90;18.56;96888.31;4962612;29;947;-76
2022/02/01 03:54:38;;;;;;;;;;;;;;;22.50;19.11;96878.84;4960964;29;1024;-76
2022/02/01 03:57:05;;;;;;;;;;;;;;;22.01;19.45;96884.78;4991350;28;1971;-76
2022/02/01 03:59:30;;;;;;;;;;;;;;;22.11;19.66;96886.34;5000036;28;974;-76
2022/02/01 04:01:56;;;;;;;;;;;;;;;22.69;18.82;96879.56;5001524;28;1040;-76
2022/02/01 04:04:22;;;;;;;;;;;;;;;22.90;18.64;96876.94;4998860;28;978;-76
2022/02/01 04:06:48;;;;;;;;;;;;;;;22.34;19.36;96882.06;5030759;28;1000;-76
2022/02/01 04:09:14;;;;;;;;;;;;;;;22.13;19.44;96881.03;5038373;28;961;-76
2022/02/01 04:11:39;;;;;;;;;;;;;;;22.05;19.66;96882.56;5039839;28;1198;-76
2022/02/01 04:14:05;;;;;;;;;;;;;;;22.30;19.21;96879.38;5037498;28;1222;-76
2022/02/01 04:16:31;;;;;;;;;;;;;;;23.15;18.20;96885.00;5039497;28;1969;-76
2022/02/01 04:18:57;;;;;;;;;;;;;;;22.52;19.11;96884.03;5037341;28;1304;-76
2022/02/01 04:21:23;;;;;;;;;;;;;;;22.19;19.45;96884.78;5040016;28;1292;-76
2022/02/01 04:23:48;;;;;;;;;;;;;;;21.74;20.19;96889.22;5054378;28;1238;-76
2022/02/01 04:26:13;;;;;;;;;;;;;;;22.93;18.79;96882.47;5063384;28;882;-76
2022/02/01 04:28:39;;;;;;;;;;;;;;;22.81;18.63;96887.06;5059806;28;910;-76
2022/02/01 04:31:04;;;;;;;;;;;;;;;22.49;19.00;96887.84;5063843;28;975;-76
2022/02/01 04:33:30;;;;;;;;;;;;;;;22.12;19.29;96882.25;5060216;28;920;-76
2022/02/01 04:35:55;;;;;;;;;;;;;;;22.48;19.31;96892.69;5060527;28;1964;-76
2022/02/01 04:38:21;;;;;;;;;;;;;;;22.87;18.87;96876.63;5024236;28;991;-76
2022/02/01 04:40:52;;;;;;;;;;;;;;;22.90;18.45;96886.28;5062568;28;944;-75
2022/02/01 04:43:18;;;;;;;;;;;;;;;22.45;19.28;96887.22;5057659;28;955;-76
2022/02/01 04:45:43;;;;;;;;;;;;;;;22.12;19.34;96882.25;5059735;28;1023;-76
2022/02/01 04:48:09;;;;;;;;;;;;;;;22.16;19.65;96882.88;5040982;28;955;-75
2022/02/01 04:50:34;;;;;;;;;;;;;;;22.81;18.59;96881.41;5043023;28;1227;-76
2022/02/01 04:53:00;;;;;;;;;;;;;;;22.90;18.70;96874.13;4998249;28;1078;-76
2022/02/01 04:55:47;;;;;;;;;;;;;;;22.47;19.37;96884.69;4999755;28;1971;-76
2022/02/01 04:58:12;;;;;;;;;;;;;;;22.30;19.27;96870.88;4998448;28;1013;-76
2022/02/01 05:00:38;;;;;;;;;;;;;;;22.20;19.40;96877.84;5000502;28;954;-76
2022/02/01 05:03:03;;;;;;;;;;;;;;;22.84;18.73;96880.41;4998236;28;1004;-76
2022/02/01 05:05:29;;;;;;;;;;;;;;;22.78;18.74;96881.56;4999344;28;1037;-76
2022/02/01 05:07:59;;;;;;;;;;;;;;;22.34;19.27;96882.84;4998642;28;936;-76
2022/02/01 05:10:25;;;;;;;;;;;;;;;22.24;19.52;96881.31;4999614;28;942;-76
2022/02/01 05:12:51;;;;;;;;;;;;;;;22.33;19.33;96884.13;4982525;28;1010;-76
2022/02/01 05:15:16;;;;;;;;;;;;;;;22.65;18.94;96878.94;4999230;28;1902;-76
2022/02/01 05:17:51;;;;;;;;;;;;;;;22.73;18.68;96879.38;4998254;28;1590;-76
2022/02/01 05:20:44;;;;;;;;;;;;;;;22.20;19.70;96877.06;4999038;28;1099;-75
2022/02/01 05:23:10;;;;;;;;;;;;;;;22.10;19.54;96867.75;5011370;28;972;-76
2022/02/01 05:25:35;;;;;;;;;;;;;;;22.38;19.46;96876.19;5042479;28;923;-75
2022/02/01 05:28:01;;;;;;;;;;;;;;;22.75;18.84;96871.97;5039900;28;1139;-76
2022/02/01 05:30:26;;;;;;;;;;;;;;;22.62;19.02;96880.69;5040406;28;1132;-76
2022/02/01 05:32:52;;;;;;;;;;;;;;;22.34;19.23;96873.56;5040628;28;897;-76
2022/02/01 05:35:18;;;;;;;;;;;;;;;22.14;19.52;96873.31;5048127;28;1887;-76
2022/02/01 05:37:43;;;;;;;;;;;;;;;22.55;19.13;96880.25;5042568;28;943;-76
2022/02/01 05:40:10;;;;;;;;;;;;;;;22.90;18.69;96876.94;5059507;28;895;-76
2022/02/01 05:42:57;;;;;;;;;;;;;;;22.94;18.76;96880.41;5038237;28;1014;-76
2022/02/01 05:45:22;;;;;;;;;;;;;;;22.39;19.01;96872.13;5017963;28;1032;-76
2022/02/01 05:47:48;;;;;;;;;;;;;;;22.13;19.42;96877.41;5018550;28;1047;-76
2022/02/01 05:50:13;;;;;;;;;;;;;;;22.42;19.20;96882.50;4998894;28;1017;-76
2022/02/01 05:52:39;;;;;;;;;;;;;;;22.93;18.79;96888.13;5000075;28;978;-77
2022/02/01 05:55:04;;;;;;;;;;;;;;;22.78;18.61;96888.00;4997687;28;1981;-77
2022/02/01 05:57:30;;;;;;;;;;;;;;;22.38;18.94;96887.53;4999579;28;946;-75
2022/02/01 05:59:55;;;;;;;;;;;;;;;22.17;19.60;96895.00;5002364;28;979;-77
2022/02/01 06:02:21;;;;;;;;;;;;;;;22.62;19.24;96885.56;5004496;28;1034;-77
2022/02/01 06:04:46;;;;;;;;;;;;;;;22.92;18.62;96885.78;5001325;28;1662;-78
2022/02/01 06:07:12;;;;;;;;;;;;;;;22.59;19.02;96886.53;4996564;28;1735;-77
2022/02/01 06:09:37;;;;;;;;;;;;;;;22.43;19.09;96889.72;4974503;28;1819;-78
2022/02/01 06:12:03;;;;;;;;;;;;;;;22.36;19.36;96879.53;4988295;28;1581;-76
2022/02/01 06:14:28;;;;;;;;;;;;;;;22.21;19.73;96884.28;5019817;28;1672;-77
2022/02/01 06:16:54;;;;;;;;;;;;;;;22.40;19.36;96879.38;5040953;28;1922;-77
2022/02/01 06:19:19;;;;;;;;;;;;;;;22.35;19.37;96872.28;5006011;28;1836;-77
2022/02/01 06:21:44;;;;;;;;;;;;;;;22.50;19.33;96883.75;5042006;28;2068;-77
2022/02/01 06:24:11;;;;;;;;;;;;;;;22.36;19.47;96880.31;5042790;28;1967;-75
2022/02/01 06:26:37;;;;;;;;;;;;;;;22.27;19.50;96883.16;5046649;28;2028;-77
2022/02/01 06:29:02;;;;;;;;;;;;;;;22.05;19.74;96877.69;5064037;28;1713;-76
2022/02/01 06:31:28;;;;;;;;;;;;;;;22.68;19.03;96883.66;5058911;28;1896;-71
2022/02/01 06:33:53;;;;;;;;;;;;;;;22.96;18.73;96877.88;5057758;28;1601;-69
2022/02/01 06:36:19;;;;;;;;;;;;;;;23.01;18.30;96882.91;5058381;28;1950;-75
2022/02/01 06:38:44;;;;;;;;;;;;;;;23.11;18.49;96884.41;5057802;28;1693;-72
2022/02/01 06:41:10;;;;;;;;;;;;;;;23.35;18.42;96884.41;5057940;28;1893;-74
2022/02/01 06:43:36;;;;;;;;;;;;;;;23.53;18.16;96889.19;5056936;28;2311;-71
2022/02/01 06:46:01;;;;;;;;;;;;;;;23.55;18.11;96883.78;5057591;28;2101;-72
2022/02/01 06:48:27;;;;;;;;;;;;;;;23.43;17.98;96882.00;5057758;28;1727;-68
2022/02/01 06:50:53;;;;;;;;;;;;;;;23.19;18.61;96888.44;5054702;28;1928;-76
2022/02/01 06:53:20;;;;;;;;;;;;;;;23.12;18.56;96886.78;5053357;28;1897;-75
2022/02/01 06:55:57;;;;;;;;;;;;;;;22.59;19.27;96892.22;4994558;28;2014;-75
2022/02/01 06:58:23;;;;;;;;;;;;;;;22.69;19.01;96890.09;4995815;28;1849;-76
2022/02/01 07:00:48;;;;;;;;;;;;;;;23.48;18.58;96892.69;4995205;28;1814;-70
2022/02/01 07:03:14;;;;;;;;;;;;;;;23.16;19.11;96888.63;4996320;28;1504;-72
2022/02/01 07:05:39;;;;;;;;;;;;;;;22.81;19.17;96892.75;4995651;28;1897;-70
2022/02/01 07:08:05;;;;;;;;;;;;;;;22.91;19.35;96895.56;4995861;28;1662;-71
2022/02/01 07:10:30;;;;;;;;;;;;;;;22.94;19.09;96900.25;4995766;28;1028;-71
2022/02/01 07:12:56;;;;;;;;;;;;;;;23.23;18.98;96900.41;4979311;28;1206;-72
2022/02/01 07:15:21;;;;;;;;;;;;;;;23.32;18.47;96903.19;4996209;28;1971;-71
2022/02/01 07:17:47;;;;;;;;;;;;;;;23.03;18.80;96903.84;4980039;28;1280;-71
2022/02/01 07:20:13;;;;;;;;;;;;;;;22.85;19.12;96910.38;4995951;28;1042;-72
2022/02/01 07:22:41;;;;;;;;;;;;;;;22.80;19.19;96911.03;4995863;28;1124;-72
2022/02/01 07:25:15;;;;;;;;;;;;;;;22.62;19.09;96913.94;4964126;28;1524;-71
2022/02/01 07:27:47;;;;;;;;;;;;;;;22.84;19.06;96910.84;5052448;28;992;-72
2022/02/01 07:30:13;;;;;;;;;;;;;;;22.96;18.81;96909.09;5057804;28;927;-72
2022/02/01 07:32:38;;;;;;;;;;;;;;;22.91;18.96;96909.75;5038615;28;990;-71
2022/02/01 07:36:01;;;;;;;;;;;;;;;22.75;19.14;96913.72;5093089;27;1141;-73
2022/02/01 07:38:26;;;;;;;;;;;;;;;22.60;19.11;96913.63;5083423;28;1955;-70
2022/02/01 07:40:53;;;;;;;;;;;;;;;22.96;18.75;96917.59;5080830;28;2001;-73
2022/02/01 07:43:19;;;;;;;;;;;;;;;22.98;19.54;96917.91;5112505;28;2016;-67
2022/02/01 07:45:45;;;;;;;;;;;;;;;22.94;19.39;96925.78;5079696;28;1675;-71
2022/02/01 07:50:23;;;;;;;;;;;;;;;23.08;19.35;96922.25;5129453;27;1715;-74
2022/02/01 07:54:03;;;;;;;;;;;;;;;22.12;20.12;96921.91;5082520;27;1762;-78
2022/02/01 07:56:28;;;;;;;;;;;;;;;22.40;20.22;96921.88;5075869;28;921;-78
2022/02/01 07:58:53;;;;;;;;;;;;;;;22.25;19.99;96919.69;5073425;28;1863;-78
2022/02/01 08:01:19;;;;;;;;;;;;;;;22.35;19.96;96935.41;5075527;28;1657;-77
2022/02/01 08:03:44;;;;;;;;;;;;;;;22.07;20.54;96928.19;5071718;28;1028;-77
2022/02/01 08:06:10;;;;;;;;;;;;;;;22.31;20.07;96928.34;5074078;28;1934;-77
2022/02/01 08:08:35;;;;;;;;;;;;;;;21.88;20.59;96935.16;5071920;28;968;-77
2022/02/01 08:11:02;;;;;;;;;;;;;;;21.73;20.76;96924.44;5074846;28;1605;-77
2022/02/01 08:23:02;;;;;;;;;;;;;;;22.55;20.33;96937.72;5101269;27;1855;-71
2022/02/01 08:25:31;;;;;;;;;;;;;;;23.27;19.87;96935.09;5103798;28;1797;-72
2022/02/01 08:27:57;;;;;;;;;;;;;;;23.42;19.42;96931.53;5135499;27;1989;-70
2022/02/01 08:31:30;;;;;;;;;;;;;;;23.17;20.02;96936.41;5105901;27;1215;-72
2022/02/01 08:33:55;;;;;;;;;;;;;;;22.77;21.09;96926.16;5140129;27;974;-70
2022/02/01 08:38:37;;;;;;;;;;;;;;;23.47;20.01;96950.75;5132375;27;1578;-70
2022/02/01 08:41:03;;;;;;;;;;;;;;;23.98;19.28;96955.41;5095092;28;1927;-75
2022/02/01 08:43:28;;;;;;;;;;;;;;;22.95;20.45;96952.88;5100030;28;1737;-70
2022/02/01 08:45:54;;;;;;;;;;;;;;;22.81;20.97;96952.28;5106459;28;1539;-71
2022/02/01 08:50:47;;;;;;;;;;;;;;;23.03;20.57;96954.13;5070602;28;1435;-71
2022/02/01 08:54:15;;;;;;;;;;;;;;;23.83;19.84;96961.88;5090933;27;1606;-71
2022/02/01 08:59:24;;;;;;;;;;;;;;;22.84;20.59;96970.38;5060893;28;1235;-73
2022/02/01 09:02:21;;;;;;;;;;;;;;;22.85;20.71;96963.47;5086803;27;1714;-70
2022/02/01 09:04:46;;;;;;;;;;;;;;;22.76;20.77;96957.84;5080470;28;2151;-74
2022/02/01 09:08:33;;;;;;;;;;;;;;;22.98;20.62;96960.44;5070351;28;1616;-68
2022/02/01 09:10:58;;;;;;;;;;;;;;;23.26;20.51;96956.22;5059750;28;1413;-69
2022/02/01 09:13:23;;;;;;;;;;;;;;;23.09;20.42;96955.03;5059209;28;1516;-77
2022/02/01 09:15:49;;;;;;;;;;;;;;;22.84;20.52;96959.81;5058664;28;1016;-76
2022/02/01 09:18:14;;;;;;;;;;;;;;;22.54;21.02;96946.72;5054190;28;1013;-77
2022/02/01 09:20:40;;;;;;;;;;;;;;;22.45;21.04;96943.91;5054107;28;1577;-77
2022/02/01 09:23:05;;;;;;;;;;;;;;;22.40;21.32;96938.88;5053870;28;932;-78
2022/02/01 09:25:31;;;;;;;;;;;;;;;22.34;21.35;96939.53;5054021;28;916;-77
2022/02/01 09:27:56;;;;;;;;;;;;;;;22.28;21.33;96932.16;5053542;28;2012;-77
2022/02/01 09:30:22;;;;;;;;;;;;;;;22.18;21.35;96942.72;5054244;28;1153;-77
2022/02/01 09:32:48;;;;;;;;;;;;;;;22.14;21.27;96936.41;5054337;28;983;-77
2022/02/01 09:35:13;;;;;;;;;;;;;;;22.18;21.16;96927.75;5013525;28;1452;-77
2022/02/01 09:37:39;;;;;;;;;;;;;;;22.21;21.28;96924.75;4975084;28;1515;-77
2022/02/01 09:40:04;;;;;;;;;;;;;;;22.05;21.54;96927.88;4973531;28;1602;-77
2022/02/01 09:42:30;;;;;;;;;;;;;;;22.38;20.77;96939.34;4975869;28;1591;-78
2022/02/01 09:44:55;;;;;;;;;;;;;;;22.57;20.94;96931.56;4973687;28;1329;-78
2022/02/01 09:47:31;;;;;;;;;;;;;;;22.33;21.02;96932.28;4975337;28;1981;-77
2022/02/01 09:49:56;;;;;;;;;;;;;;;22.28;20.84;96921.59;4974355;28;1500;-78
2022/02/01 09:52:22;;;;;;;;;;;;;;;22.20;20.99;96917.50;4976093;28;1573;-78
2022/02/01 09:54:51;;;;;;;;;;;;;;;22.41;20.75;96920.59;4974030;28;1357;-76
2022/02/01 09:57:19;;;;;;;;;;;;;;;23.12;19.73;96922.88;4965581;28;1480;-76
2022/02/01 09:59:51;;;;;;;;;;;;;;;22.58;20.52;96930.31;4974535;28;1027;-76
2022/02/01 10:02:17;;;;;;;;;;;;;;;22.39;20.58;96923.94;4976507;28;976;-76
2022/02/01 10:04:42;;;;;;;;;;;;;;;22.14;20.90;96922.25;4974765;28;1289;-76
2022/02/01 10:07:11;;;;;;;;;;;;;;;22.33;20.78;96915.28;4975778;28;1890;-76
2022/02/01 10:09:54;;;;;;;;;;;;;;;22.58;20.46;96911.25;5045376;28;1886;-76
2022/02/01 10:12:19;;;;;;;;;;;;;;;22.38;20.67;96915.88;5063410;28;2003;-76
2022/02/01 10:14:53;;;;;;;;;;;;;;;22.13;21.11;96912.19;5079798;28;1750;-77
2022/02/01 10:17:35;;;;;;;;;;;;;;;22.20;21.21;96899.72;5094989;28;1039;-77
2022/02/01 10:20:00;;;;;;;;;;;;;;;22.40;20.61;96896.38;5078683;28;1076;-77
2022/02/01 10:22:29;;;;;;;;;;;;;;;22.60;20.68;96891.72;5080815;28;939;-77
2022/02/01 10:24:54;;;;;;;;;;;;;;;22.39;20.64;96889.91;5078927;28;929;-76
2022/02/01 10:27:21;;;;;;;;;;;;;;;22.08;21.26;96888.06;5066222;28;1977;-77
2022/02/01 10:32:47;;;;;;;;;;;;;;;22.37;21.35;96875.41;5021100;28;1787;-74
2022/02/01 10:35:31;;;;;;;;;;;;;;;22.53;21.22;96886.38;5054577;28;2009;-74
2022/02/01 10:38:00;;;;;;;;;;;;;;;22.66;20.93;96886.19;5054437;28;1816;-73
2022/02/01 10:40:55;;;;;;;;;;;;;;;22.76;20.92;96865.03;5049302;28;1562;-73
2022/02/01 10:43:23;;;;;;;;;;;;;;;22.69;21.09;96873.91;4995963;28;1197;-76
2022/02/01 10:45:49;;;;;;;;;;;;;;;22.40;21.57;96873.69;4983044;28;1507;-76
2022/02/01 10:48:15;;;;;;;;;;;;;;;22.32;21.34;96874.00;4945738;28;1975;-76
2022/02/01 10:50:40;;;;;;;;;;;;;;;22.07;21.81;96865.88;4979439;28;1770;-76
2022/02/01 10:53:26;;;;;;;;;;;;;;;22.02;21.88;96855.19;4977858;28;1812;-76
2022/02/01 10:55:52;;;;;;;;;;;;;;;22.36;21.50;96851.97;4978688;28;2125;-76
2022/02/01 10:58:17;;;;;;;;;;;;;;;22.51;21.00;96851.28;4978111;28;1857;-76
2022/02/01 11:00:43;;;;;;;;;;;;;;;22.39;21.05;96855.13;4940791;29;1547;-76
2022/02/01 11:03:10;;;;;;;;;;;;;;;22.28;21.52;96850.75;4901463;29;1355;-77
2022/02/01 11:05:36;;;;;;;;;;;;;;;22.08;21.54;96853.31;4901979;29;1608;-78
2022/02/01 11:08:01;;;;;;;;;;;;;;;21.36;22.40;96860.59;4901671;29;1911;-77
2022/02/01 11:10:27;;;;;;;;;;;;;;;21.89;21.71;96841.22;4882720;29;1901;-78
2022/02/01 11:13:02;;;;;;;;;;;;;;;22.62;21.06;96841.00;4867392;29;1611;-77
2022/02/01 11:15:28;;;;;;;;;;;;;;;22.24;21.14;96835.97;4864073;29;1632;-77
2022/02/01 11:17:53;;;;;;;;;;;;;;;22.27;21.38;96832.16;4814345;29;1756;-79
2022/02/01 11:20:29;;;;;;;;;;;;;;;21.82;21.86;96830.22;4837119;29;1345;-78
2022/02/01 11:23:07;;;;;;;;;;;;;;;22.79;20.45;96827.19;4839768;29;1881;-78
2022/02/01 11:25:47;;;;;;;;;;;;;;;22.56;20.79;96825.13;4835556;29;1405;-72
2022/02/01 11:31:03;;;;;;;;;;;;;;;22.66;21.30;96818.13;4844348;29;1766;-74
2022/02/01 11:33:34;;;;;;;;;;;;;;;23.04;21.21;96819.50;4891133;29;1577;-69
2022/02/01 11:36:00;;;;;;;;;;;;;;;23.15;21.25;96819.75;4888199;29;1509;-69
2022/02/01 11:38:26;;;;;;;;;;;;;;;23.29;21.21;96806.88;4904036;29;1584;-68
2022/02/01 11:40:59;;;;;;;;;;;;;;;23.38;20.94;96813.25;4906257;29;1605;-70
2022/02/01 11:43:24;;;;;;;;;;;;;;;23.23;21.34;96809.59;4919858;29;1571;-69
2022/02/01 11:45:54;;;;;;;;;;;;;;;23.53;21.02;96810.47;4936093;29;1397;-70
2022/02/01 11:48:20;;;;;;;;;;;;;;;23.62;20.79;96812.41;4940457;29;1906;-70
2022/02/01 11:50:46;;;;;;;;;;;;;;;23.05;21.42;96807.69;4955571;29;1147;-70
2022/02/01 11:53:17;;;;;;;;;;;;;;;22.82;21.75;96816.94;4954617;28;1888;-69
2022/02/01 11:55:45;;;;;;;;;;;;;;;23.02;21.89;96816.38;4944420;29;1847;-78
2022/02/01 11:58:10;;;;;;;;;;;;;;;22.82;22.08;96809.22;4973181;28;1660;-78
2022/02/01 12:00:39;;;;;;;;;;;;;;;22.77;21.81;96817.59;4978017;28;1902;-79
2022/02/01 12:03:05;;;;;;;;;;;;;;;21.78;23.37;96813.41;4952456;29;1675;-78
2022/02/01 12:05:30;;;;;;;;;;;;;;;22.44;22.25;96817.63;4950238;29;1290;-77
2022/02/01 12:08:06;;;;;;;;;;;;;;;22.45;22.37;96819.19;4959493;29;1931;-77
2022/02/01 12:10:33;;;;;;;;;;;;;;;22.32;22.42;96823.00;4963768;29;969;-77
2022/02/01 12:12:59;;;;;;;;;;;;;;;22.17;22.57;96833.44;4969407;28;1355;-78
2022/02/01 12:15:27;;;;;;;;;;;;;;;22.32;22.40;96828.69;4955384;28;1632;-78
2022/02/01 12:17:55;;;;;;;;;;;;;;;21.72;23.01;96843.59;4970940;28;1299;-78
2022/02/01 12:20:20;;;;;;;;;;;;;;;22.33;22.21;96844.44;4955341;28;1579;-78
2022/02/01 12:23:18;;;;;;;;;;;;;;;22.29;22.40;96843.03;4947865;29;960;-78
2022/02/01 12:25:43;;;;;;;;;;;;;;;22.21;22.47;96839.75;4909860;29;1005;-78
2022/02/01 12:28:16;;;;;;;;;;;;;;;22.37;22.16;96841.41;4909255;29;1965;-78
2022/02/01 12:30:42;;;;;;;;;;;;;;;22.41;22.08;96849.75;4892379;29;983;-78
2022/02/01 12:33:13;;;;;;;;;;;;;;;22.50;22.01;96849.72;4896345;29;919;-78
2022/02/01 12:35:40;;;;;;;;;;;;;;;22.42;22.09;96848.47;4942051;29;948;-78
2022/02/01 12:38:08;;;;;;;;;;;;;;;22.21;22.10;96861.63;4947657;29;1000;-78
2022/02/01 12:40:35;;;;;;;;;;;;;;;22.20;22.23;96855.19;4949323;29;937;-78
2022/02/01 12:43:08;;;;;;;;;;;;;;;21.80;22.27;96805.19;4947692;29;1122;-78
2022/02/01 12:45:59;;;;;;;;;;;;;;;21.87;22.59;96854.28;4932771;29;1119;-78
2022/02/01 12:48:24;;;;;;;;;;;;;;;22.18;22.10;96863.38;4889152;29;1978;-78
2022/02/01 12:51:08;;;;;;;;;;;;;;;22.14;22.31;96868.41;4893129;29;1011;-78
2022/02/01 12:53:38;;;;;;;;;;;;;;;22.20;22.14;96872.16;4888979;29;968;-78
2022/02/01 12:56:10;;;;;;;;;;;;;;;22.73;21.60;96877.31;4894120;29;890;-78
2022/02/01 12:58:36;;;;;;;;;;;;;;;22.67;21.38;96870.75;4889159;29;1026;-78
2022/02/01 13:01:01;;;;;;;;;;;;;;;22.35;21.92;96875.91;4927833;28;935;-78
2022/02/01 13:03:27;;;;;;;;;;;;;;;22.23;22.09;96876.91;4984630;28;1046;-78
2022/02/01 13:05:56;;;;;;;;;;;;;;;22.22;22.15;96875.31;4987960;28;1076;-78
2022/02/01 13:08:35;;;;;;;;;;;;;;;22.18;21.97;96880.38;4983756;28;1981;-78
2022/02/01 13:16:37;;;;;;;;;;;;;;;22.30;21.85;96896.38;4988861;28;939;-79
2022/02/01 13:21:29;;;;;;;;;;;;;;;21.97;22.16;96899.13;4986572;28;884;-78
2022/02/01 13:23:55;;;;;;;;;;;;;;;22.27;21.70;96902.22;4984518;28;1164;-78
2022/02/01 13:26:28;;;;;;;;;;;;;;;21.58;22.63;96900.84;5023833;28;1898;-78
2022/02/01 13:28:57;;;;;;;;;;;;;;;22.17;22.00;96904.28;5025962;28;942;-78
2022/02/01 13:31:26;;;;;;;;;;;;;;;22.27;21.92;96914.34;5023129;28;1037;-78
2022/02/01 13:33:56;;;;;;;;;;;;;;;22.14;21.93;96908.09;5003273;28;987;-78
2022/02/01 13:36:21;;;;;;;;;;;;;;;21.97;22.23;96904.00;5006773;28;875;-78
2022/02/01 13:38:51;;;;;;;;;;;;;;;22.53;21.47;96906.22;5003140;28;1104;-78
2022/02/01 13:41:17;;;;;;;;;;;;;;;23.36;20.54;96915.16;4986420;28;1120;-78
2022/02/01 13:43:49;;;;;;;;;;;;;;;23.31;20.68;96918.66;4965865;28;1067;-79
2022/02/01 13:46:19;;;;;;;;;;;;;;;22.53;21.49;96922.44;4987708;28;1910;-78
2022/02/01 13:48:44;;;;;;;;;;;;;;;22.21;21.72;96924.75;4926111;29;1329;-78
2022/02/01 13:51:10;;;;;;;;;;;;;;;22.18;21.86;96914.38;4930420;29;1169;-78
2022/02/01 13:53:35;;;;;;;;;;;;;;;22.26;21.87;96909.94;4910094;29;1004;-78
2022/02/01 13:56:03;;;;;;;;;;;;;;;21.64;22.74;96915.94;4914550;29;1031;-78
2022/02/01 13:58:32;;;;;;;;;;;;;;;22.30;21.67;96909.78;4856475;29;1036;-78
2022/02/01 14:00:59;;;;;;;;;;;;;;;22.19;22.04;96904.59;4876788;29;986;-78
2022/02/01 14:03:41;;;;;;;;;;;;;;;22.11;22.04;96903.34;4855137;29;945;-78
2022/02/01 14:06:40;;;;;;;;;;;;;;;22.20;21.76;96911.84;4859102;29;1053;-78
2022/02/01 14:12:06;;;;;;;;;;;;;;;22.22;21.85;96912.13;4860715;29;1043;-78
2022/02/01 14:28:09;;;;;;;;;;;;;;;22.52;21.23;96903.88;4926464;29;1906;-78
2022/02/01 14:36:03;;;;;;;;;;;;;;;21.87;22.44;96916.59;4912703;29;1000;-78
2022/02/01 14:46:14;;;;;;;;;;;;;;;22.13;22.04;96923.50;4894460;29;1884;-78
2022/02/01 14:48:39;;;;;;;;;;;;;;;22.68;21.28;96926.19;4888250;29;1046;-78
2022/02/01 14:51:05;;;;;;;;;;;;;;;22.67;21.03;96927.44;4847299;29;1047;-78
2022/02/01 14:53:32;;;;;;;;;;;;;;;22.18;21.93;96928.53;4870062;29;933;-78
2022/02/01 14:56:08;;;;;;;;;;;;;;;22.17;22.09;96924.13;4875062;29;1419;-78
2022/02/01 15:04:11;;;;;;;;;;;;;;;21.50;22.58;96931.53;4871287;29;953;-78
2022/02/01 15:14:33;;;;;;;;;;;;;;;22.16;21.95;96950.88;4871428;29;988;-78
2022/02/01 15:16:59;;;;;;;;;;;;;;;22.11;22.11;96954.34;4882394;29;1141;-78
2022/02/01 15:19:24;;;;;;;;;;;;;;;22.24;21.63;96960.63;4890028;29;1054;-78
2022/02/01 15:21:50;;;;;;;;;;;;;;;21.84;22.51;96950.25;4929416;29;971;-78
2022/02/01 15:24:15;;;;;;;;;;;;;;;22.08;22.29;96963.78;4919810;29;958;-78
2022/02/01 15:26:41;;;;;;;;;;;;;;;22.20;22.02;96973.38;4911021;29;1911;-78
2022/02/01 15:29:06;;;;;;;;;;;;;;;22.00;22.20;96976.69;4936543;29;948;-78
2022/02/01 15:31:31;;;;;;;;;;;;;;;22.09;21.88;96980.28;4960610;28;1315;-78
2022/02/01 15:33:57;;;;;;;;;;;;;;;22.23;21.81;96984.56;4985007;28;1085;-78
2022/02/01 15:36:23;;;;;;;;;;;;;;;22.20;21.96;96979.84;5000771;28;1026;-78
2022/02/01 15:48:38;;;;;;;;;;;;;;;22.16;21.97;97004.72;5006003;28;1979;-78